X Fechar
foto

X Fechar
foto
Clique e saiba mais
Clique e saiba mais
Clique e saiba mais
Clique e saiba mais
Clique e saiba mais
Clique e saiba mais

Edgers Racing

KTM Sacramento

Toro Sports

SP Race Park

JPS Racing

MotoX Pneus

Clique e saiba mais

> Notícias > Últimas Notícias

MXGP da Ásia: Resultados e vídeo da 12ª etapa do Mundial de Motocross 2019
Publicado em: 14/07/2019

Tim Gajser e Jorge Prado dominam segunda rodada consecutiva do campeonato na Indonésia
Redação MotoX.com.br - Fotos: Bavo Swgjers e Ray Archer


Tim Gajser conquistou a sétima vitória consecutiva na temporada 2019

Os líderes do Mundial de Motocross 2019 seguem firmes na competição após o MXGP da Ásia, 12ª etapa da temporada. Neste domingo (14), a segunda rodada consecutiva do campeonato na Indonésia contou com domínio de Tim Gajser (Team HRC) na categoria MXGP e Jorge Prado (Red Bull KTM Factory) na MX2. Apesar de cheias de incidentes, as corridas terminaram sem que nada impedisse ambos de dominarem suas respectivas classes.

Com Antonio Cairoli fora de ação e do restante da temporada devido a uma cirurgia no ombro direito, o suiço Jeremy Seewer - terceiro no GP atrás do seu compatriota Arnaud Tonus - assumiu a vice-liderança da categoria principal, mas está a distantes 173 pontos do líder Gajser, vencedor das duas baterias de hoje.


Jorge Prado dominou mais uma rodada na MX2

Na MX2, Prado também teve 100% de aproveitamento e ampliou a vantagem sobre Thomas Kjer Olsen na classificação geral para 78 pontos. O vice-lider do campeonato enfrentou problemas na segunda bateria e fechou o GP apenas na 10ª posição, mas segue como principal rival do espanhol na disputa pelo título.  

Confira abaixo os melhores momentos do MXGP da Ásia, os resultados completos e a classificação atualizada do campeonato.

Vídeo:



Resultados


P # MXGP Bat 1 País Bike Time V Diff Gap M.V. Speed
1 243 Gajser, Tim SLO Hon 35:12.232 18 0:00.000 0:00.000 1:49.826 56.7
2 4 Tonus, Arnaud SUI Yam 35:15.825 18 0:03.593 0:03.593 1:50.236 56.4
3 91 Seewer, Jeremy SUI Yam 35:20.781 18 0:08.549 0:04.956 1:50.044 56.5
4 259 Coldenhoff, Glenn NED KTM 35:29.644 18 0:17.412 0:08.863 1:51.133 56
5 27 Jasikonis, Arminas LTU Hus 35:33.180 18 0:20.948 0:03.536 1:50.733 56.2
6 89 Van Horebeek, Jeremy BEL Hon 35:47.014 18 0:34.782 0:13.834 1:51.606 55.8
7 99 Anstie, Max GBR KTM 35:52.982 18 0:40.750 0:05.968 1:51.731 55.7
8 128 Monticelli, Ivo ITA KTM 36:06.740 18 0:54.508 0:13.758 1:52.162 55.5
9 21 Paulin, Gautier FRA Yam 36:29.620 18 1:17.388 0:22.880 1:52.436 55.3
10 7 Leok, Tanel EST Hus 36:53.672 18 1:41.440 0:24.052 1:55.239 54
11 189 Bogers, Brian NED Hon 36:54.345 18 1:42.113 0:00.673 1:53.743 54.7
12 336 Stewart, Lewis AUS KTM 35:56.483 17 1 lap 1 lap 1:58.390 52.6
13 621 Lusbo, Andero EST Hus 36:41.949 17 1 lap 0:45.466 1:57.608 52.9
14 251 Darias Vapanen, Bruno ESP KTM 35:14.419 16 2 laps 1 lap 2:00.398 51.7
15 227 Coles, Adam AUS Hus 35:34.020 16 2 laps 0:19.601 2:00.907 51.5
16 626 Milesevic, Joel AUS KTM 35:55.733 16 2 laps 0:21.713 1:58.902 52.3
17 162 Farhan Hendra, Farhrodjie INA Hus 35:25.471 15 3 laps 1 lap 2:08.712 48.3
18 131 van Nobelen, Jordi NED Hus 35:27.717 15 3 laps 0:02.246 2:07.525 48.8
19 110 Lazaroni, Aldi INA Hus 36:54.654 15 3 laps 1:26.937 2:09.074 48.2
20 244 Nakpane, Madjade TOG Hus 36:57.476 15 3 laps 0:02.822 2:11.796 47.2
21 461 Febvre, Romain FRA Yam 7:18.796 3 15 laps 12 laps 1:49.373 56.9

P # MXGP Bat 2 País Bike Time V Diff Gap M.V. Speed
1 243 Gajser, Tim SLO Hon 35:33.827 18 0:00.000 0:00.000 1:51.070 56
2 41 Jonass, Pauls LAT Hus 35:37.097 18 0:03.270 0:03.270 1:52.071 55.5
3 4 Tonus, Arnaud SUI Yam 35:38.034 18 0:04.207 0:00.937 1:51.614 55.7
4 91 Seewer, Jeremy SUI Yam 35:43.033 18 0:09.206 0:04.999 1:52.369 55.4
5 461 Febvre, Romain FRA Yam 35:58.554 18 0:24.727 0:15.521 1:51.478 55.8
6 99 Anstie, Max GBR KTM 36:00.353 18 0:26.526 0:01.799 1:52.533 55.3
7 259 Coldenhoff, Glenn NED KTM 36:03.264 18 0:29.437 0:02.911 1:52.138 55.5
8 21 Paulin, Gautier FRA Yam 36:06.554 18 0:32.727 0:03.290 1:52.435 55.3
9 27 Jasikonis, Arminas LTU Hus 36:16.955 18 0:43.128 0:10.401 1:53.133 55
10 89 Van Horebeek, Jeremy BEL Hon 36:42.310 18 1:08.483 0:25.355 1:52.932 55.1
11 128 Monticelli, Ivo ITA KTM 36:52.127 18 1:18.300 0:09.817 1:54.381 54.4
12 7 Leok, Tanel EST Hus 37:01.494 18 1:27.667 0:09.367 1:54.526 54.3
13 189 Bogers, Brian NED Hon 37:15.628 18 1:41.801 0:14.134 1:55.168 54
14 336 Stewart, Lewis AUS KTM 36:15.770 17 1 lap 1 lap 1:57.850 52.8
15 621 Lusbo, Andero EST Hus 36:49.247 17 1 lap 0:33.477 1:59.478 52.1
16 227 Coles, Adam AUS Hus 37:26.547 17 1 lap 0:37.300 2:02.656 50.7
17 626 Milesevic, Joel AUS KTM 36:05.319 16 2 laps 1 lap 2:03.152 50.5
18 131 van Nobelen, Jordi NED Hus 37:22.266 16 2 laps 1:16.947 2:07.705 48.7
19 110 Lazaroni, Aldi INA Hus 35:41.782 15 3 laps 1 lap 2:11.863 47.2
20 162 Farhan Hendra, Farhrodjie INA Hus 36:58.424 15 3 laps 1:16.642 2:11.478 47.3
21 244 Nakpane, Madjade TOG Hus 36:05.184 14 4 laps 1 lap 2:18.329 45
22 251 Darias Vapanen, Bruno ESP KTM 17:42.675 4 14 laps 10 laps 2:03.071 50.6

P # MXGP soma das baterias Bike Bat 1 Bat 2 Total
1 243 Gajser, Tim HON 25 25 50
2 4 Tonus, Arnaud YAM 22 20 42
3 91 Seewer, Jeremy YAM 20 18 38
4 259 Coldenhoff, Glenn KTM 18 14 32
5 99 Anstie, Max KTM 14 15 29
6 27 Jasikonis, Arminas HUS 16 12 28
7 89 Van Horebeek, Jeremy HON 15 11 26
8 21 Paulin, Gautier YAM 12 13 25
9 128 Monticelli, Ivo KTM 13 10 23
10 41 Jonass, Pauls HUS 0 22 22
11 7 Leok, Tanel HUS 11 9 20
12 189 Bogers, Brian HON 10 8 18
13 461 Febvre, Romain YAM 0 16 16
14 336 Stewart, Lewis KTM 9 7 16
15 621 Lusbo, Andero HUS 8 6 14
16 227 Coles, Adam HUS 6 5 11
17 626 Milesevic, Joel KTM 5 4 9
18 251 Darias Vapanen, Bruno KTM 7 0 7
19 131 van Nobelen, Jordi HUS 3 3 6
20 162 Farhan Hendra, Farhrodjie HUS 4 1 5
21 110 Lazaroni, Aldi HUS 2 2 4
22 244 Nakpane, Madjade HUS 1 0 1

P # MX2 Bat 1 País Bike Time V Diff Gap M.V. Speed
1 61 Prado, Jorge ESP KTM 35:45.473 18 0:00.000 0:00.000 1:50.857 56.1
2 28 Vialle, Tom FRA KTM 35:56.884 18 0:11.411 0:11.411 1:50.984 56.1
3 19 Olsen, Thomas Kjer DEN Hus 35:59.878 18 0:14.405 0:02.994 1:52.243 55.4
4 14 Beaton, Jed AUS Hus 36:02.342 18 0:16.869 0:02.464 1:53.076 55
5 10 Vlaanderen, Calvin NED Hon 36:07.387 18 0:21.914 0:05.045 1:52.792 55.2
6 172 Boisrame, Mathys FRA Hon 36:11.319 18 0:25.846 0:03.932 1:53.673 54.7
7 29 Jacobi, Henry GER Kaw 36:11.655 18 0:26.182 0:00.336 1:53.181 55
8 959 Renaux, Maxime FRA Yam 36:21.786 18 0:36.313 0:10.131 1:53.530 54.8
9 811 Sterry, Adam GBR Kaw 36:31.304 18 0:45.831 0:09.518 1:53.696 54.7
10 193 Geerts, Jago BEL Yam 36:41.103 18 0:55.630 0:09.799 1:53.378 54.9
11 32 Van doninck, Brent BEL Hon 36:45.137 18 0:59.664 0:04.034 1:54.467 54.4
12 35 Harrison, Mitchell USA Kaw 36:48.052 18 1:02.579 0:02.915 1:53.703 54.7
13 98 Vaessen, Bas NED KTM 36:52.922 18 1:07.449 0:04.870 1:54.322 54.4
14 102 Sikyna, Richard SVK KTM 36:54.195 18 1:08.722 0:01.273 1:53.793 54.7
15 66 Larranaga Olano, Iker ESP KTM 36:55.071 18 1:09.598 0:00.876 1:54.351 54.4
16 101 Pichon, Zachary FRA Hon 37:19.449 18 1:33.976 0:24.378 1:55.165 54
17 325 Alfarizi, Delvintor INA Hon 36:29.230 17 1 lap 1 lap 1:59.118 52.2
18 206 Ismayana, Diva INA Kaw 35:30.699 12 6 laps 5 laps 2:03.457 50.4
19 225 Strubhart Moreau, Brian FRA Kaw 12:13.562 5 13 laps 7 laps 1:53.115 55

P # MX2 Bat 2 País Bike Time V Diff Gap M.V. Speed
1 61 Prado, Jorge ESP KTM 34:45.752 17 0:00.000 0:00.000 1:53.537 54.8
2 959 Renaux, Maxime FRA Yam 34:49.668 17 0:03.916 0:03.916 1:54.258 54.5
3 10 Vlaanderen, Calvin NED Hon 34:53.639 17 0:07.887 0:03.971 1:55.371 53.9
4 28 Vialle, Tom FRA KTM 34:57.578 17 0:11.826 0:03.939 1:55.087 54.1
5 32 Van doninck, Brent BEL Hon 34:59.677 17 0:13.925 0:02.099 1:54.957 54.1
6 193 Geerts, Jago BEL Yam 35:00.565 17 0:14.813 0:00.888 1:53.853 54.7
7 29 Jacobi, Henry GER Kaw 35:14.593 17 0:28.841 0:14.028 1:54.661 54.3
8 172 Boisrame, Mathys FRA Hon 35:27.959 17 0:42.207 0:13.366 1:56.060 53.6
9 66 Larranaga Olano, Iker ESP KTM 35:30.005 17 0:44.253 0:02.046 1:56.515 53.4
10 35 Harrison, Mitchell USA Kaw 35:30.606 17 0:44.854 0:00.601 1:57.046 53.2
11 14 Beaton, Jed AUS Hus 35:31.050 17 0:45.298 0:00.444 1:56.222 53.5
12 101 Pichon, Zachary FRA Hon 35:52.020 17 1:06.268 0:20.970 1:56.644 53.3
13 102 Sikyna, Richard SVK KTM 36:30.971 17 1:45.219 0:38.951 1:58.810 52.4
14 325 Alfarizi, Delvintor INA Hon 35:16.508 16 1 lap 1 lap 2:01.254 51.3
15 811 Sterry, Adam GBR Kaw 36:06.393 16 1 lap 0:49.885 1:57.013 53.2
16 206 Ismayana, Diva INA Kaw 34:52.361 13 4 laps 3 laps 2:13.817 46.5
17 225 Strubhart Moreau, Brian FRA Kaw 10:54.696 4 13 laps 9 laps 1:57.947 52.8
18 19 Olsen, Thomas Kjer DEN Hus 0:00.000 -1 18 laps 5 laps 0:00.000 0
19 98 Vaessen, Bas NED KTM 0:00.000 -1 18 laps 0:00.000 0:00.000 0

P # MX2 soma das baterias Bike Bat 1 Bat 2 Total
1 61 Prado, Jorge KTM 25 25 50
2 28 Vialle, Tom KTM 22 18 40
3 10 Vlaanderen, Calvin HON 16 20 36
4 959 Renaux, Maxime YAM 13 22 35
5 29 Jacobi, Henry KAW 14 14 28
6 172 Boisrame, Mathys HON 15 13 28
7 14 Beaton, Jed HUS 18 10 28
8 32 Van doninck, Brent HON 10 16 26
9 193 Geerts, Jago YAM 11 15 26
10 19 Olsen, Thomas Kjer HUS 20 3 23
11 35 Harrison, Mitchell KAW 9 11 20
12 66 Larranaga Olano, Iker KTM 6 12 18
13 811 Sterry, Adam KAW 12 6 18
14 102 Sikyna, Richard KTM 7 8 15
15 101 Pichon, Zachary HON 5 9 14
16 325 Alfarizi, Delvintor HON 4 7 11
17 98 Vaessen, Bas KTM 8 2 10
18 206 Ismayana, Diva KAW 3 5 8
19 225 Strubhart Moreau, Brian KAW 2 4 6

Classificação do campeonato após 12 etapas:


P # MXGP País Bike Pts
1 243 Gajser, Tim SLO HON 538
2 91 Seewer, Jeremy SUI YAM 365
3 222 Cairoli, A. ITA KTM 358
4 4 Tonus, Arnaud SUI YAM 346
5 21 Paulin, G. FRA YAM 343
6 27 Jasikonis, A. LTU HUS 299
7 259 Coldenhoff, G. NED KTM 288
8 89 Van Horebeek, J. BEL HON 271
9 41 Jonass, Pauls LAT HUS 268
10 461 Febvre, Romain FRA YAM 243
11 25 Desalle, C. BEL KAW 208
12 99 Anstie, Max GBR KTM 207
13 33 Lieber, Julien BEL KAW 184
14 128 Monticelli, I. ITA KTM 184
15 189 Bogers, Brian NED HON 144
16 7 Leok, Tanel EST HUS 132
17 24 Simpson, Shaun GBR KTM 129
18 77 Lupino, A. ITA KAW 103
19 100 Searle, Tommy GBR KAW 103
20 911 Tixier, Jordi FRA KTM 81
21 6 Paturel, B. FRA KAW 65
22 84 Herlings, J. NED KTM 57
23 18 Brylyakov, V. RUS YAM 44
24 22 Strijbos, K. BEL YAM 43
25 297 Gole, Anton SWE YAM 30

P # MX2 País Bike Pts
1 61 Prado, Jorge ESP KTM 544
2 19 Olsen, T. DEN HUS 466
3 28 Vialle, Tom FRA KTM 366
4 193 Geerts, Jago BEL YAM 360
5 29 Jacobi, Henry GER KAW 335
6 919 Watson, Ben GBR YAM 246
7 811 Sterry, Adam GBR KAW 242
8 43 Evans, M. AUS HON 228
9 959 Renaux, Maxime FRA YAM 227
10 14 Beaton, Jed AUS HUS 220
11 98 Vaessen, Bas NED KTM 219
12 172 Boisrame, M. FRA HON 197
13 10 Vlaanderen, C. NED HON 184
14 747 Cervellin, M. ITA YAM 179
15 46 Pootjes, Davy NED HUS 157
16 32 Van doninck, B. BEL HON 146
17 66 Larranaga Olano, I. ESP KTM 113
18 35 Harrison, M. USA KAW 112
19 161 Östlund, Alvin SWE HUS 104
20 53 Walsh, Dylan NZL HUS 95
21 102 Sikyna, R. SVK KTM 82
22 57 Sanayei, D. USA KAW 79
23 225 Strubhart Moreau, B. FRA KAW 64
24 101 Pichon, Z. FRA HON 57
25 44 Lesiardo, M. ITA KTM 52
26 426 Mewse, Conrad GBR KTM 40
27 39 Van De Moosdijk, R. NED KAW 23
28 303 Forato, A. ITA HUS 23
29 56 Pessoa, G. BRA KAW 20
30 325 Alfarizi, D. INA HON 19







© 2000 - 2018 MotoX MX1 Internet